createdAt,value
2019-05-02T00:01:21.073Z,29.57
2019-05-02T00:03:47.147Z,27.15
2019-05-02T00:06:13.457Z,23.00
2019-05-02T00:08:39.766Z,19.82
2019-05-02T00:11:08.516Z,22.50
2019-05-02T00:13:34.792Z,21.77
2019-05-02T00:16:01.920Z,28.55
2019-05-02T00:18:31.986Z,22.15
2019-05-02T00:20:57.182Z,22.22
2019-05-02T00:23:28.125Z,16.90
2019-05-02T00:25:52.692Z,17.87
2019-05-02T00:28:20.132Z,20.68
2019-05-02T00:30:46.389Z,19.42
2019-05-02T00:33:12.492Z,16.80
2019-05-02T00:35:40.998Z,18.37
2019-05-02T00:38:06.812Z,16.42
2019-05-02T00:40:32.985Z,20.57
2019-05-02T00:42:59.632Z,20.88
2019-05-02T00:45:26.081Z,16.42
2019-05-02T00:47:57.276Z,16.00
2019-05-02T00:50:24.360Z,16.20
2019-05-02T00:52:50.462Z,22.07
2019-05-02T00:55:16.533Z,18.75
2019-05-02T00:57:42.607Z,17.00
2019-05-02T01:00:13.523Z,22.65
2019-05-02T01:02:51.707Z,19.85
2019-05-02T01:05:17.781Z,22.25
2019-05-02T01:07:44.290Z,27.87
2019-05-02T01:10:10.686Z,26.87
2019-05-02T01:12:39.905Z,23.40
2019-05-02T01:15:08.344Z,25.52
2019-05-02T01:17:32.795Z,25.77
2019-05-02T01:19:58.885Z,24.67
2019-05-02T01:22:25.004Z,23.62
2019-05-02T01:24:51.259Z,22.32
2019-05-02T01:27:27.892Z,26.07
2019-05-02T01:30:05.913Z,23.27
2019-05-02T01:32:35.110Z,24.65
2019-05-02T01:35:09.135Z,22.90
2019-05-02T01:37:43.387Z,26.73
2019-05-02T01:40:13.085Z,28.02
2019-05-02T01:42:40.097Z,23.62
2019-05-02T01:45:06.771Z,30.15
2019-05-02T01:47:34.118Z,31.00
2019-05-02T01:50:02.389Z,31.90
2019-05-02T01:52:28.452Z,30.27
2019-05-02T01:54:54.510Z,26.70
2019-05-02T01:57:20.763Z,23.83
2019-05-02T01:59:46.829Z,20.43
2019-05-02T02:02:13.088Z,26.30
2019-05-02T02:04:39.169Z,27.40
2019-05-02T02:07:05.457Z,27.65
2019-05-02T02:09:31.511Z,27.48
2019-05-02T02:11:57.589Z,29.35
2019-05-02T02:14:23.682Z,30.17
2019-05-02T02:16:49.768Z,31.00
2019-05-02T02:19:26.790Z,28.23
2019-05-02T02:22:02.638Z,30.00
2019-05-02T02:24:27.476Z,29.10
2019-05-02T02:26:53.544Z,33.98
2019-05-02T02:29:19.599Z,31.25
2019-05-02T02:31:46.492Z,29.82
2019-05-02T02:34:13.674Z,31.40
2019-05-02T02:36:39.730Z,32.58
2019-05-02T02:39:07.039Z,30.37
2019-05-02T02:41:34.372Z,36.83
2019-05-02T02:44:18.783Z,34.18
2019-05-02T02:46:46.756Z,37.42
2019-05-02T02:49:14.075Z,31.75
2019-05-02T02:51:40.911Z,31.62
2019-05-02T02:54:06.968Z,29.00
2019-05-02T02:56:34.414Z,29.92
2019-05-02T02:59:01.105Z,31.60
2019-05-02T03:01:29.721Z,31.52
2019-05-02T03:03:55.180Z,29.55
2019-05-02T03:06:21.339Z,32.48
2019-05-02T03:08:49.169Z,29.95
2019-05-02T03:11:23.234Z,28.60
2019-05-02T03:14:05.586Z,29.77
2019-05-02T03:16:26.259Z,27.95
2019-05-02T03:18:52.322Z,28.52
2019-05-02T03:21:20.475Z,25.85
2019-05-02T03:23:46.374Z,31.60
2019-05-02T03:26:15.040Z,28.27
2019-05-02T03:28:40.610Z,27.50
2019-05-02T03:31:20.898Z,29.37
2019-05-02T03:33:51.387Z,23.40
2019-05-02T03:36:02.966Z,26.82
2019-05-02T03:38:32.553Z,24.50
2019-05-02T03:40:57.177Z,27.55
2019-05-02T03:43:25.578Z,22.70
2019-05-02T03:45:52.340Z,25.35
2019-05-02T03:48:25.661Z,22.07
2019-05-02T03:50:48.381Z,20.05
2019-05-02T03:53:17.828Z,23.70
2019-05-02T03:55:42.604Z,23.85
2019-05-02T03:58:14.143Z,26.30
2019-05-02T04:00:36.765Z,24.80
2019-05-02T04:03:03.140Z,27.07
2019-05-02T04:05:33.771Z,17.32
2019-05-02T04:07:57.587Z,16.95
2019-05-02T04:10:45.677Z,18.23
2019-05-02T04:13:12.753Z,18.00
2019-05-02T04:15:38.929Z,18.42
2019-05-02T04:18:08.378Z,22.13
2019-05-02T04:20:33.900Z,21.10
2019-05-02T04:23:00.393Z,21.00
2019-05-02T04:25:28.034Z,18.25
2019-05-02T04:27:56.307Z,19.10
2019-05-02T04:30:22.393Z,17.77
2019-05-02T04:32:49.669Z,15.63
2019-05-02T04:35:16.443Z,16.50
2019-05-02T04:37:43.767Z,16.17
2019-05-02T04:40:12.323Z,19.42
2019-05-02T04:42:39.338Z,18.82
2019-05-02T04:45:20.511Z,18.57
2019-05-02T04:47:33.744Z,21.90
2019-05-02T04:49:59.815Z,22.95
2019-05-02T04:52:28.587Z,22.07
2019-05-02T04:55:08.244Z,24.12
2019-05-02T04:57:29.798Z,21.90
2019-05-02T04:59:50.622Z,22.65
2019-05-02T05:02:21.309Z,22.15
2019-05-02T05:04:48.697Z,24.80
2019-05-02T05:07:13.741Z,27.15
2019-05-02T05:09:40.480Z,24.63
2019-05-02T05:12:07.149Z,28.15
2019-05-02T05:14:41.214Z,26.40
2019-05-02T05:17:01.325Z,25.40
2019-05-02T05:19:28.674Z,29.77
2019-05-02T05:21:59.172Z,28.62
2019-05-02T05:24:38.566Z,30.80
2019-05-02T05:27:02.679Z,31.62
2019-05-02T05:29:29.193Z,36.58
2019-05-02T05:32:05.113Z,37.98
2019-05-02T05:34:28.517Z,32.40
2019-05-02T05:36:51.483Z,34.75
2019-05-02T05:39:17.725Z,30.90
2019-05-02T05:41:50.539Z,31.35
2019-05-02T05:44:11.896Z,35.58
2019-05-02T05:46:41.136Z,31.60
2019-05-02T05:49:12.352Z,34.18
2019-05-02T05:51:33.891Z,34.75
2019-05-02T05:54:03.203Z,29.50
2019-05-02T05:56:32.493Z,30.20
2019-05-02T05:58:58.795Z,30.57
2019-05-02T06:01:26.206Z,38.08
2019-05-02T06:03:52.492Z,31.82
2019-05-02T06:06:22.875Z,46.83
2019-05-02T06:08:49.099Z,44.25
2019-05-02T06:11:14.820Z,37.65
2019-05-02T06:13:43.100Z,34.15
2019-05-02T06:16:14.892Z,38.60
2019-05-02T06:18:41.720Z,37.98
2019-05-02T06:21:08.840Z,32.20
2019-05-02T06:23:36.412Z,37.45
2019-05-02T06:26:07.961Z,34.23
2019-05-02T06:28:30.539Z,34.45
2019-05-02T06:30:56.720Z,30.82
2019-05-02T06:33:25.909Z,31.95
2019-05-02T06:35:51.880Z,37.10
2019-05-02T06:38:21.639Z,33.25
2019-05-02T06:40:46.753Z,32.10
2019-05-02T06:43:12.945Z,39.40
2019-05-02T06:45:39.672Z,36.58
2019-05-02T06:48:06.069Z,31.77
2019-05-02T06:50:33.437Z,36.98
2019-05-02T06:53:04.308Z,39.95
2019-05-02T06:55:36.055Z,32.15
2019-05-02T06:57:57.083Z,35.50
2019-05-02T07:00:35.360Z,40.65
2019-05-02T07:02:52.174Z,28.20
2019-05-02T07:05:18.253Z,30.45
2019-05-02T07:07:44.370Z,29.45
2019-05-02T07:10:10.627Z,33.18
2019-05-02T07:12:36.695Z,34.08
2019-05-02T07:15:08.968Z,37.55
2019-05-02T07:17:40.057Z,31.97
2019-05-02T07:20:08.425Z,32.63
2019-05-02T07:22:38.772Z,31.52
2019-05-02T07:25:06.970Z,33.53
2019-05-02T07:27:35.612Z,28.20
2019-05-02T07:30:04.199Z,31.27
2019-05-02T07:32:30.272Z,27.87
2019-05-02T07:34:56.382Z,34.63
2019-05-02T07:37:22.526Z,31.57
2019-05-02T07:39:48.588Z,31.13
2019-05-02T07:42:14.757Z,27.80
2019-05-02T07:44:40.820Z,26.20
2019-05-02T07:47:07.092Z,33.63
2019-05-02T07:49:34.286Z,30.47
2019-05-02T07:52:00.595Z,31.23
2019-05-02T07:54:26.857Z,31.63
2019-05-02T07:56:53.599Z,30.50
2019-05-02T07:59:23.352Z,29.80
2019-05-02T08:01:49.669Z,29.20
2019-05-02T08:04:16.666Z,31.83
2019-05-02T08:06:44.556Z,27.73
2019-05-02T08:09:10.908Z,34.53
2019-05-02T08:11:38.490Z,27.30
2019-05-02T08:14:04.909Z,29.50
2019-05-02T08:16:30.979Z,26.13
2019-05-02T08:19:01.364Z,30.23
2019-05-02T08:21:27.321Z,35.13
2019-05-02T08:23:57.227Z,29.50
2019-05-02T08:26:23.394Z,32.57
2019-05-02T08:28:53.895Z,30.60
2019-05-02T08:31:21.012Z,27.37
2019-05-02T08:33:47.341Z,27.90
2019-05-02T08:36:13.423Z,29.63
2019-05-02T08:38:39.485Z,25.17
2019-05-02T08:41:05.573Z,25.33
2019-05-02T08:43:31.638Z,25.70
2019-05-02T08:45:57.736Z,27.93
2019-05-02T08:48:23.904Z,27.67
2019-05-02T08:50:49.963Z,31.43
2019-05-02T08:53:19.995Z,29.73
2019-05-02T08:55:45.334Z,25.97
2019-05-02T08:58:14.364Z,27.80
2019-05-02T09:00:40.048Z,31.00
2019-05-02T09:03:06.308Z,29.23
2019-05-02T09:05:36.902Z,26.57
2019-05-02T09:08:00.375Z,28.17
2019-05-02T09:10:26.460Z,26.60
2019-05-02T09:12:52.527Z,32.13
2019-05-02T09:15:18.961Z,30.80
2019-05-02T09:17:52.830Z,28.77
2019-05-02T09:20:18.665Z,28.07
2019-05-02T09:22:46.509Z,25.83
2019-05-02T09:25:12.579Z,32.20
2019-05-02T09:27:38.761Z,29.43
2019-05-02T09:30:08.235Z,28.83
2019-05-02T09:32:37.061Z,32.53
2019-05-02T09:35:06.177Z,29.47
2019-05-02T09:37:32.130Z,34.57
2019-05-02T09:39:58.346Z,29.50
2019-05-02T09:42:24.433Z,32.23
2019-05-02T09:44:53.353Z,64.50
2019-05-02T09:47:22.296Z,39.73
2019-05-02T09:49:52.563Z,61.50
2019-05-02T09:52:18.324Z,34.57
2019-05-02T09:54:46.114Z,30.70
2019-05-02T09:57:12.555Z,26.70
2019-05-02T09:59:43.456Z,30.90
2019-05-02T10:02:07.602Z,28.80
2019-05-02T10:04:33.938Z,25.63
2019-05-02T10:07:02.550Z,27.80
2019-05-02T10:09:28.869Z,26.70
2019-05-02T10:11:55.027Z,24.63
2019-05-02T10:14:22.606Z,23.90
2019-05-02T10:16:49.057Z,30.50
2019-05-02T10:19:15.147Z,36.10
2019-05-02T10:21:42.193Z,26.90
2019-05-02T10:24:08.395Z,30.93
2019-05-02T10:26:34.467Z,28.70
2019-05-02T10:29:02.027Z,25.60
2019-05-02T10:31:33.497Z,24.80
2019-05-02T10:33:56.291Z,31.80
2019-05-02T10:36:23.997Z,29.73
2019-05-02T10:38:54.826Z,30.80
2019-05-02T10:41:18.233Z,29.03
2019-05-02T10:43:46.869Z,22.50
2019-05-02T10:46:17.196Z,16.23
2019-05-02T10:48:47.739Z,15.83
2019-05-02T10:51:26.196Z,14.67
2019-05-02T10:53:56.241Z,18.73
2019-05-02T10:56:22.122Z,16.03
2019-05-02T10:58:48.883Z,18.40
2019-05-02T11:01:16.435Z,19.57
2019-05-02T11:03:47.501Z,18.77
2019-05-02T11:06:12.597Z,19.37
2019-05-02T11:08:42.256Z,21.37
2019-05-02T11:11:07.338Z,21.07
2019-05-02T11:13:44.907Z,17.50
2019-05-02T11:16:19.187Z,20.10
2019-05-02T11:18:56.204Z,18.90
2019-05-02T11:21:22.951Z,34.70
2019-05-02T11:23:49.187Z,22.40
2019-05-02T11:26:21.505Z,21.70
2019-05-02T11:28:43.516Z,21.67
2019-05-02T11:31:10.228Z,42.13
2019-05-02T11:33:37.889Z,88.67
2019-05-02T11:36:03.964Z,46.43
2019-05-02T11:38:30.532Z,21.57
2019-05-02T11:40:57.027Z,25.73
2019-05-02T11:43:23.089Z,20.90
2019-05-02T11:45:49.144Z,21.17
2019-05-02T11:48:15.223Z,19.50
2019-05-02T11:50:42.233Z,19.87
2019-05-02T11:53:22.262Z,20.23
2019-05-02T11:55:36.425Z,14.70
2019-05-02T11:58:08.192Z,16.70
2019-05-02T12:00:32.365Z,13.40
2019-05-02T12:03:12.729Z,15.57
2019-05-02T12:05:41.950Z,14.23
2019-05-02T12:08:09.508Z,16.27
2019-05-02T12:10:36.738Z,15.33
2019-05-02T12:13:06.552Z,16.10
2019-05-02T12:15:32.395Z,11.13
2019-05-02T12:17:58.981Z,10.90
2019-05-02T12:20:28.664Z,9.87
2019-05-02T12:22:53.058Z,14.40
2019-05-02T12:25:19.228Z,7.07
2019-05-02T12:27:45.291Z,7.53
2019-05-02T12:30:11.943Z,19.23
2019-05-02T12:32:38.029Z,7.67
2019-05-02T12:35:04.516Z,15.23
2019-05-02T12:37:32.609Z,15.10
2019-05-02T12:39:58.552Z,7.20
2019-05-02T12:42:25.333Z,8.33
2019-05-02T12:44:53.271Z,7.97
2019-05-02T12:47:19.524Z,6.10
2019-05-02T12:49:45.604Z,7.03
2019-05-02T12:52:12.907Z,7.70
2019-05-02T12:54:39.380Z,6.53
2019-05-02T12:57:05.444Z,7.60
2019-05-02T12:59:32.208Z,7.50
2019-05-02T13:02:02.418Z,6.50
2019-05-02T13:04:28.369Z,14.70
2019-05-02T13:06:54.423Z,9.20
2019-05-02T13:09:20.582Z,9.07
2019-05-02T13:11:52.310Z,7.57
2019-05-02T13:14:22.438Z,12.43
2019-05-02T13:16:53.462Z,9.10
2019-05-02T13:19:16.807Z,7.80
2019-05-02T13:21:50.112Z,7.07
2019-05-02T13:24:29.322Z,6.87
2019-05-02T13:26:59.324Z,9.50
2019-05-02T13:29:23.128Z,8.17
2019-05-02T13:31:52.387Z,17.60
2019-05-02T13:34:26.536Z,10.77
2019-05-02T13:36:53.936Z,10.47
2019-05-02T13:39:24.643Z,10.47
2019-05-02T13:41:52.155Z,10.70
2019-05-02T13:44:23.137Z,11.60
2019-05-02T13:46:49.415Z,10.90
2019-05-02T13:49:15.933Z,12.50
2019-05-02T13:51:42.678Z,11.27
2019-05-02T13:54:08.988Z,41.33
2019-05-02T13:56:37.089Z,11.60
2019-05-02T13:59:03.660Z,11.70
2019-05-02T14:01:31.576Z,12.87
2019-05-02T14:03:57.829Z,107.70
2019-05-02T14:06:30.321Z,10.93
2019-05-02T14:08:53.880Z,13.20
2019-05-02T14:11:33.850Z,17.70
2019-05-02T14:14:01.898Z,19.80
2019-05-02T14:16:28.086Z,11.80
2019-05-02T14:18:54.203Z,12.60
2019-05-02T14:21:22.309Z,12.90
2019-05-02T14:23:48.261Z,10.83
2019-05-02T14:26:26.928Z,9.80
2019-05-02T14:28:43.336Z,9.67
2019-05-02T14:31:11.791Z,9.17
2019-05-02T14:33:39.541Z,9.27
2019-05-02T14:36:05.698Z,8.80
2019-05-02T14:38:32.258Z,12.20
2019-05-02T14:41:00.360Z,11.40
2019-05-02T14:43:47.837Z,10.30
2019-05-02T14:46:13.623Z,10.73
2019-05-02T14:48:43.704Z,12.00
2019-05-02T14:51:08.635Z,9.20
2019-05-02T14:53:34.867Z,10.80
2019-05-02T14:56:06.172Z,13.07
2019-05-02T14:58:32.464Z,10.27
2019-05-02T15:00:58.836Z,9.10
2019-05-02T15:03:28.443Z,10.30
2019-05-02T15:05:52.904Z,11.33
2019-05-02T15:08:19.077Z,9.67
2019-05-02T15:10:52.385Z,9.03
2019-05-02T15:13:13.848Z,8.73
2019-05-02T15:15:42.929Z,9.50
2019-05-02T15:18:15.814Z,9.97
2019-05-02T15:20:39.396Z,8.57
2019-05-02T15:23:07.271Z,8.80
2019-05-02T15:25:32.544Z,9.47
2019-05-02T15:28:00.104Z,9.13
2019-05-02T15:30:26.676Z,9.90
2019-05-02T15:32:57.679Z,8.80
2019-05-02T15:35:26.935Z,9.43
2019-05-02T15:37:56.540Z,9.10
2019-05-02T15:42:49.660Z,10.30
2019-05-02T15:45:15.926Z,10.43
2019-05-02T15:47:45.171Z,9.67
2019-05-02T15:50:14.743Z,9.27
2019-05-02T15:52:42.013Z,8.63
2019-05-02T15:55:08.457Z,12.30
2019-05-02T15:57:42.980Z,10.50
2019-05-02T16:00:09.124Z,9.40
2019-05-02T16:02:35.291Z,11.30
2019-05-02T16:05:05.310Z,10.60
2019-05-02T16:07:29.985Z,9.83
2019-05-02T16:10:00.086Z,12.00
2019-05-02T16:12:27.045Z,10.13
2019-05-02T16:14:52.790Z,11.07
2019-05-02T16:17:22.206Z,11.00
2019-05-02T16:19:52.509Z,9.60
2019-05-02T16:22:22.456Z,10.00
2019-05-02T16:24:50.716Z,12.67
2019-05-02T16:27:21.153Z,10.30
2019-05-02T16:29:44.612Z,10.70
2019-05-02T16:32:13.313Z,10.37
2019-05-02T16:34:54.180Z,9.40
2019-05-02T16:37:18.557Z,8.60
2019-05-02T16:39:49.563Z,9.60
2019-05-02T16:42:12.632Z,10.60
2019-05-02T16:44:38.680Z,10.60
2019-05-02T16:47:04.743Z,9.87
2019-05-02T16:49:32.214Z,11.17
2019-05-02T16:52:04.960Z,12.37
2019-05-02T16:54:26.352Z,11.33
2019-05-02T16:56:52.437Z,10.10
2019-05-02T16:59:21.494Z,9.13
2019-05-02T17:01:46.587Z,10.03
2019-05-02T17:04:12.964Z,10.73
2019-05-02T17:06:39.345Z,9.43
2019-05-02T17:09:24.145Z,9.00
2019-05-02T17:11:52.315Z,11.20
2019-05-02T17:14:18.273Z,10.90
2019-05-02T17:16:47.117Z,12.50
2019-05-02T17:19:12.457Z,15.03
2019-05-02T17:21:53.225Z,10.13
2019-05-02T17:24:06.571Z,9.97
2019-05-02T17:26:32.627Z,10.40
2019-05-02T17:28:58.694Z,11.57
2019-05-02T17:31:24.747Z,12.70
2019-05-02T17:33:52.424Z,13.43
2019-05-02T17:36:23.382Z,13.07
2019-05-02T17:38:46.979Z,10.60
2019-05-02T17:41:13.047Z,9.73
2019-05-02T17:43:42.205Z,10.97
2019-05-02T17:46:07.583Z,12.47
2019-05-02T17:48:34.805Z,16.10
2019-05-02T17:51:16.290Z,12.63
2019-05-02T17:53:49.605Z,11.30
2019-05-02T17:56:12.986Z,11.97
2019-05-02T17:58:39.779Z,10.43
2019-05-02T18:01:08.083Z,10.67
2019-05-02T18:03:35.433Z,10.27
2019-05-02T18:06:02.686Z,11.87
2019-05-02T18:08:29.032Z,11.53
2019-05-02T18:10:59.930Z,12.60
2019-05-02T18:13:23.167Z,10.47
2019-05-02T18:15:49.236Z,10.10
2019-05-02T18:18:15.300Z,11.03
2019-05-02T18:20:42.742Z,13.27
2019-05-02T18:23:09.361Z,11.47
2019-05-02T18:25:35.467Z,14.83
2019-05-02T18:28:02.379Z,10.00
2019-05-02T18:30:28.644Z,11.27
2019-05-02T18:32:57.665Z,11.33
2019-05-02T18:35:22.673Z,9.67
2019-05-02T18:37:48.743Z,12.30
2019-05-02T18:40:15.199Z,9.57
2019-05-02T18:42:42.412Z,9.90
2019-05-02T18:45:25.272Z,9.73
2019-05-02T18:47:53.990Z,11.50
2019-05-02T18:50:31.950Z,13.53
2019-05-02T18:52:58.785Z,12.50
2019-05-02T18:55:26.103Z,14.80
2019-05-02T18:57:56.896Z,15.37
2019-05-02T19:00:22.747Z,12.77
2019-05-02T19:02:49.192Z,16.50
2019-05-02T19:05:19.296Z,14.77
2019-05-02T19:07:47.320Z,12.47
2019-05-02T19:10:13.124Z,12.20
2019-05-02T19:12:39.297Z,11.87
2019-05-02T19:15:07.174Z,12.37
2019-05-02T19:17:38.397Z,12.37
2019-05-02T19:20:06.135Z,14.50
2019-05-02T19:22:32.132Z,18.30
2019-05-02T19:25:01.155Z,15.23
2019-05-02T19:27:44.925Z,11.63
2019-05-02T19:30:12.524Z,11.83
2019-05-02T19:32:38.677Z,10.73
2019-05-02T19:35:06.896Z,14.73
2019-05-02T19:37:36.182Z,11.10
2019-05-02T19:40:01.601Z,21.53
2019-05-02T19:42:27.709Z,46.80
2019-05-02T19:44:53.778Z,63.10
2019-05-02T19:47:21.604Z,45.30
2019-05-02T19:49:52.552Z,26.70
2019-05-02T19:52:15.971Z,21.60
2019-05-02T19:54:43.627Z,22.20
2019-05-02T19:57:11.718Z,39.50
2019-05-02T19:59:38.007Z,38.00
2019-05-02T20:02:06.099Z,14.40
2019-05-02T20:04:32.735Z,62.83
2019-05-02T20:06:59.158Z,73.33
2019-05-02T20:09:25.527Z,90.73
2019-05-02T20:11:52.187Z,100.37
2019-05-02T20:14:18.417Z,68.03
2019-05-02T20:16:49.181Z,83.97
2019-05-02T20:19:17.271Z,20.87
2019-05-02T20:21:45.421Z,17.17
2019-05-02T20:24:17.529Z,22.23
2019-05-02T20:26:41.687Z,14.27
2019-05-02T20:29:07.712Z,42.60
2019-05-02T20:31:33.868Z,24.00
2019-05-02T20:33:59.957Z,11.40
2019-05-02T20:36:26.035Z,17.07
2019-05-02T20:38:52.644Z,13.40
2019-05-02T20:41:18.943Z,9.53
2019-05-02T20:43:45.485Z,18.20
2019-05-02T20:46:12.231Z,10.90
2019-05-02T20:48:38.476Z,17.70
2019-05-02T20:51:04.591Z,9.90
2019-05-02T20:53:31.840Z,10.00
2019-05-02T20:55:58.935Z,12.53
2019-05-02T20:58:25.020Z,10.00
2019-05-02T21:01:04.762Z,11.43
2019-05-02T21:03:19.069Z,11.20
2019-05-02T21:05:47.152Z,16.20
2019-05-02T21:08:27.264Z,16.63
2019-05-02T21:10:58.053Z,16.37
2019-05-02T21:13:24.873Z,14.60
2019-05-02T21:15:52.405Z,18.20
2019-05-02T21:18:22.022Z,16.67
2019-05-02T21:20:46.851Z,17.30
2019-05-02T21:23:12.924Z,18.30
2019-05-02T21:25:39.136Z,15.97
2019-05-02T21:28:05.275Z,18.57
2019-05-02T21:30:32.258Z,13.40
2019-05-02T21:32:58.619Z,14.30
2019-05-02T21:35:24.698Z,14.10
2019-05-02T21:37:52.434Z,13.47
2019-05-02T21:40:19.687Z,12.03
2019-05-02T21:42:45.950Z,14.27
2019-05-02T21:45:13.150Z,11.40
2019-05-02T21:47:39.492Z,12.60
2019-05-02T21:50:22.893Z,15.67
2019-05-02T21:53:02.691Z,14.70
2019-05-02T21:55:39.537Z,10.57
2019-05-02T21:58:05.783Z,16.80
2019-05-02T22:00:46.259Z,11.43
2019-05-02T22:03:13.124Z,16.17
2019-05-02T22:05:39.283Z,15.10
2019-05-02T22:08:05.356Z,16.03
2019-05-02T22:10:32.160Z,15.80
2019-05-02T22:12:58.438Z,12.63
2019-05-02T22:15:24.601Z,10.63
2019-05-02T22:17:52.244Z,9.00
2019-05-02T22:20:18.559Z,7.67
2019-05-02T22:22:44.629Z,5.57
2019-05-02T22:25:11.601Z,5.57
2019-05-02T22:27:37.881Z,6.93
2019-05-02T22:30:05.545Z,6.23
2019-05-02T22:32:32.094Z,5.20
2019-05-02T22:34:58.397Z,6.20
2019-05-02T22:37:25.364Z,5.67
2019-05-02T22:39:59.200Z,6.63
2019-05-02T22:42:25.317Z,7.43
2019-05-02T22:44:51.387Z,8.53
2019-05-02T22:47:17.448Z,10.83
2019-05-02T22:49:43.552Z,9.10
2019-05-02T22:52:09.612Z,8.77
2019-05-02T22:54:35.707Z,10.00
2019-05-02T22:57:02.585Z,9.60
2019-05-02T22:59:28.865Z,10.07
2019-05-02T23:01:55.933Z,11.00
2019-05-02T23:04:23.625Z,10.97
2019-05-02T23:06:49.856Z,10.83
2019-05-02T23:09:15.938Z,13.13
2019-05-02T23:11:42.711Z,13.93
2019-05-02T23:14:09.081Z,12.17
2019-05-02T23:16:35.162Z,12.67
2019-05-02T23:19:02.760Z,11.30
2019-05-02T23:21:29.116Z,12.10
2019-05-02T23:23:55.421Z,10.53
2019-05-02T23:26:38.912Z,12.13
2019-05-02T23:29:06.887Z,11.63
2019-05-02T23:31:32.977Z,12.53
2019-05-02T23:33:59.064Z,11.93
2019-05-02T23:36:26.847Z,13.27
2019-05-02T23:38:53.180Z,14.87
2019-05-02T23:41:19.241Z,13.17
2019-05-02T23:43:45.453Z,12.10
2019-05-02T23:46:11.700Z,13.60
2019-05-02T23:48:37.851Z,13.63
2019-05-02T23:51:03.926Z,16.37
2019-05-02T23:53:31.547Z,17.63
2019-05-02T23:55:57.776Z,19.20
2019-05-02T23:58:23.853Z,18.43
